createdAt,value
2016-07-30T16:18:21.775Z,21.91
2016-07-30T16:19:21.735Z,21.91
2016-07-30T16:20:21.004Z,21.79
2016-07-30T16:21:21.689Z,21.74
2016-07-30T16:22:21.676Z,21.83
2016-07-30T16:23:20.936Z,21.74
2016-07-30T16:24:21.623Z,21.77
2016-07-30T16:25:21.603Z,21.73
2016-07-30T16:26:21.582Z,21.56
2016-07-30T16:27:21.555Z,21.53
2016-07-30T16:28:21.546Z,21.56
2016-07-30T16:29:21.539Z,21.79
2016-07-30T16:30:21.497Z,21.85
2016-07-30T16:31:21.489Z,21.94
2016-07-30T16:32:21.466Z,22.05
2016-07-30T16:33:20.813Z,22.04
2016-07-30T16:34:21.437Z,22.08
2016-07-30T16:35:21.413Z,22.09
2016-07-30T16:36:20.687Z,22.08
2016-07-30T16:37:21.375Z,22.05
2016-07-30T16:38:21.358Z,22.08
2016-07-30T16:39:21.343Z,22.08
2016-07-30T16:40:21.328Z,22.06
2016-07-30T16:41:21.308Z,22.09
2016-07-30T16:42:21.292Z,22.05
2016-07-30T16:43:20.564Z,21.96
2016-07-30T16:44:21.246Z,21.96
2016-07-30T16:45:21.235Z,22.06
2016-07-30T16:46:20.556Z,22.06
2016-07-30T16:47:21.198Z,22.08
2016-07-30T16:48:21.175Z,22.06
2016-07-30T16:49:21.174Z,22.11
2016-07-30T16:50:21.156Z,22.12
2016-07-30T16:51:21.186Z,22.06
2016-07-30T16:52:21.137Z,22.14
2016-07-30T16:53:21.100Z,22.05
2016-07-30T16:54:21.080Z,22.05
2016-07-30T16:55:20.355Z,22.11
2016-07-30T16:56:21.048Z,22.12
2016-07-30T16:57:21.032Z,22.14
2016-07-30T16:58:21.014Z,22.15
2016-07-30T16:59:21.014Z,22.24
2016-07-30T17:00:20.982Z,22.17
2016-07-30T17:01:20.966Z,22.19
2016-07-30T17:02:20.958Z,22.19
2016-07-30T17:03:20.943Z,22.15
2016-07-30T17:04:20.922Z,22.12
2016-07-30T17:05:20.203Z,22.17
2016-07-30T17:06:20.899Z,22.21
2016-07-30T17:07:20.254Z,22.2
2016-07-30T17:08:20.161Z,22.21
2016-07-30T17:09:20.838Z,22.2
2016-07-30T17:10:20.828Z,22.26
2016-07-30T17:11:20.808Z,22.23
2016-07-30T17:12:20.802Z,22.27
2016-07-30T17:13:20.767Z,22.33
2016-07-30T17:14:20.769Z,22.39
2016-07-30T17:15:20.749Z,22.38
2016-07-30T17:16:20.735Z,22.39
2016-07-30T17:17:20.712Z,22.35
2016-07-30T17:18:20.715Z,22.38
2016-07-30T17:19:20.690Z,22.42
2016-07-30T17:20:20.665Z,22.33
2016-07-30T17:21:20.668Z,22.38
2016-07-30T17:22:20.641Z,22.36
2016-07-30T17:23:20.620Z,22.36
2016-07-30T17:24:20.601Z,22.48
2016-07-30T17:25:20.598Z,22.42
2016-07-30T17:27:20.559Z,22.45
2016-07-30T17:28:20.544Z,22.56
2016-07-30T17:29:20.537Z,22.38
2016-07-30T17:30:20.514Z,22.45
2016-07-30T17:31:20.553Z,22.45
2016-07-30T17:32:20.479Z,22.48
2016-07-30T17:33:20.467Z,22.48
2016-07-30T17:34:20.447Z,22.51
2016-07-30T17:35:20.441Z,22.45
2016-07-30T17:36:20.423Z,22.48
2016-07-30T17:37:20.411Z,22.48
2016-07-30T17:38:20.386Z,22.51
2016-07-30T17:39:19.112Z,22.57
2016-07-30T17:40:19.651Z,22.42
2016-07-30T17:42:20.330Z,22.36
2016-07-30T17:43:20.316Z,22.42
2016-07-30T17:44:20.304Z,22.35
2016-07-30T17:45:20.284Z,22.48
2016-07-30T17:46:19.557Z,22.44
2016-07-30T17:47:20.252Z,22.44
2016-07-30T17:48:20.247Z,22.44
2016-07-30T17:49:19.572Z,22.41
2016-07-30T17:50:20.212Z,22.31
2016-07-30T17:51:20.187Z,22.41
2016-07-30T17:52:20.174Z,22.39
2016-07-30T17:53:20.174Z,22.51
2016-07-30T17:54:19.436Z,22.41
2016-07-30T17:55:19.429Z,22.42
2016-07-30T17:57:20.106Z,22.23
2016-07-30T17:58:20.090Z,22.27
2016-07-30T17:59:20.074Z,22.31
2016-07-30T18:00:20.062Z,22.36
2016-07-30T18:01:20.041Z,22.39
2016-07-30T18:02:20.030Z,22.49
2016-07-30T18:03:20.013Z,22.45
2016-07-30T18:04:19.990Z,22.54
2016-07-30T18:05:19.980Z,22.6
2016-07-30T18:06:19.968Z,22.75
2016-07-30T18:07:19.959Z,22.75
2016-07-30T18:08:19.224Z,22.78
2016-07-30T18:09:19.923Z,22.78
2016-07-30T18:10:19.914Z,22.84
2016-07-30T18:12:19.874Z,22.82
2016-07-30T18:13:19.862Z,22.86
2016-07-30T18:14:19.849Z,22.85
2016-07-30T18:15:19.825Z,22.86
2016-07-30T18:16:19.816Z,22.89
2016-07-30T18:17:19.796Z,22.93
2016-07-30T18:18:19.074Z,22.93
2016-07-30T18:19:19.768Z,23
2016-07-30T18:20:19.752Z,23.01
2016-07-30T18:21:19.035Z,23.07
2016-07-30T18:22:19.721Z,22.97
2016-07-30T18:23:19.708Z,22.82
2016-07-30T18:24:18.990Z,22.84
2016-07-30T18:25:19.688Z,22.76
2016-07-30T18:26:19.668Z,22.88
2016-07-30T18:27:19.663Z,22.78
2016-07-30T18:28:19.637Z,22.79
2016-07-30T18:29:19.620Z,22.72
2016-07-30T18:30:19.615Z,22.64
2016-07-30T18:31:18.886Z,22.63
2016-07-30T18:32:19.579Z,22.52
2016-07-30T18:33:19.564Z,22.6
2016-07-30T18:34:19.544Z,22.64
2016-07-30T18:35:18.834Z,22.57
2016-07-30T18:36:19.517Z,22.6
2016-07-30T18:37:18.788Z,22.57
2016-07-30T18:38:18.779Z,22.61
2016-07-30T18:39:19.480Z,22.51
2016-07-30T18:40:19.459Z,22.48
2016-07-30T18:41:19.455Z,22.57
2016-07-30T18:42:18.723Z,22.61
2016-07-30T18:43:19.429Z,22.63
2016-07-30T18:44:19.394Z,22.52
2016-07-30T18:45:19.386Z,22.56
2016-07-30T18:46:18.672Z,22.61
2016-07-30T18:47:19.361Z,22.59
2016-07-30T18:48:19.335Z,22.56
2016-07-30T18:49:18.612Z,22.63
2016-07-30T18:50:19.305Z,22.56
2016-07-30T18:51:18.585Z,22.61
2016-07-30T18:52:18.575Z,22.6
2016-07-30T18:53:19.266Z,22.52
2016-07-30T18:54:18.539Z,22.59
2016-07-30T18:55:18.554Z,22.48
2016-07-30T18:56:18.536Z,22.59
2016-07-30T18:57:17.792Z,22.52
2016-07-30T18:58:19.194Z,22.57
2016-07-30T18:59:19.170Z,22.6
2016-07-30T19:00:19.158Z,22.56
2016-07-30T19:01:18.438Z,22.63
2016-07-30T19:02:18.421Z,22.59
2016-07-30T19:03:19.119Z,22.61
2016-07-30T19:04:18.402Z,22.57
2016-07-30T19:05:19.084Z,22.52
2016-07-30T19:06:19.075Z,22.57
2016-07-30T19:07:18.353Z,22.59
2016-07-30T19:08:18.388Z,22.48
2016-07-30T19:09:19.018Z,22.51
2016-07-30T19:10:18.295Z,22.54
2016-07-30T19:11:18.996Z,22.57
2016-07-30T19:12:18.968Z,22.6
2016-07-30T19:13:18.966Z,22.6
2016-07-30T19:14:18.941Z,22.6
2016-07-30T19:15:18.933Z,22.52
2016-07-30T19:16:18.928Z,22.57
2016-07-30T19:17:18.912Z,22.57
2016-07-30T19:18:18.890Z,22.51
2016-07-30T19:19:18.878Z,22.51
2016-07-30T19:20:18.863Z,22.51
2016-07-30T19:21:18.849Z,22.56
2016-07-30T19:22:18.839Z,22.57
2016-07-30T19:23:18.823Z,22.67
2016-07-30T19:24:18.802Z,22.69
2016-07-30T19:25:18.787Z,22.69
2016-07-30T19:26:18.067Z,22.7
2016-07-30T19:27:18.761Z,22.7
2016-07-30T19:28:18.757Z,22.76
2016-07-30T19:29:18.019Z,22.7
2016-07-30T19:30:18.709Z,22.64
2016-07-30T19:31:18.697Z,22.64
2016-07-30T19:32:18.690Z,22.63
2016-07-30T19:33:18.668Z,22.59
2016-07-30T19:34:17.947Z,22.66
2016-07-30T19:35:18.638Z,22.64
2016-07-30T19:36:18.621Z,22.59
2016-07-30T19:37:17.906Z,22.6
2016-07-30T19:38:18.596Z,22.6
2016-07-30T19:39:17.867Z,22.59
2016-07-30T19:40:18.569Z,22.6
2016-07-30T19:41:18.557Z,22.56
2016-07-30T19:42:18.544Z,22.54
2016-07-30T19:43:18.528Z,22.57
2016-07-30T19:44:18.517Z,22.61
2016-07-30T19:45:18.499Z,22.63
2016-07-30T19:46:18.469Z,22.57
2016-07-30T19:47:18.472Z,22.64
2016-07-30T19:48:18.447Z,22.6
2016-07-30T19:49:17.734Z,22.57
2016-07-30T19:50:18.416Z,22.6
2016-07-30T19:51:18.409Z,22.6
2016-07-30T19:52:18.401Z,22.57
2016-07-30T19:53:18.376Z,22.64
2016-07-30T19:54:18.362Z,22.59
2016-07-30T19:55:18.341Z,22.57
2016-07-30T19:56:18.332Z,22.56
2016-07-30T19:57:18.312Z,22.57
2016-07-30T19:58:18.293Z,22.57
2016-07-30T19:59:18.284Z,22.6
2016-07-30T20:00:17.570Z,22.6
2016-07-30T20:01:17.540Z,22.57
2016-07-30T20:02:18.235Z,22.54
2016-07-30T20:03:18.231Z,22.54
2016-07-30T20:04:18.207Z,22.61
2016-07-30T20:05:17.487Z,22.6
2016-07-30T20:06:18.172Z,22.57
2016-07-30T20:07:18.169Z,22.59
2016-07-30T20:08:18.148Z,22.59
2016-07-30T20:09:18.136Z,22.56
2016-07-30T20:10:18.121Z,22.56
2016-07-30T20:11:18.096Z,22.54
2016-07-30T20:12:18.089Z,22.66
2016-07-30T20:13:18.072Z,22.61
2016-07-30T20:14:18.065Z,22.61
2016-07-30T20:15:18.048Z,22.6
2016-07-30T20:16:18.028Z,22.66
2016-07-30T20:17:17.310Z,22.66
2016-07-30T20:18:17.291Z,22.61
2016-07-30T20:19:17.981Z,22.59
2016-07-30T20:20:17.972Z,22.69
2016-07-30T20:21:17.954Z,22.66
2016-07-30T20:22:17.237Z,22.64
2016-07-30T20:23:17.925Z,22.63
2016-07-30T20:24:17.909Z,22.64
2016-07-30T20:25:17.908Z,22.61
2016-07-30T20:26:17.875Z,22.63
2016-07-30T20:27:17.171Z,22.61
2016-07-30T20:28:17.141Z,22.66
2016-07-30T20:29:17.126Z,22.66
2016-07-30T20:30:17.818Z,22.66
2016-07-30T20:31:17.110Z,22.61
2016-07-30T20:32:17.794Z,22.69
2016-07-30T20:33:17.771Z,22.64
2016-07-30T20:34:17.053Z,22.66
2016-07-30T20:35:17.033Z,22.61
2016-07-30T20:36:17.024Z,22.63
2016-07-30T20:37:17.717Z,22.61
2016-07-30T20:38:17.714Z,22.66
2016-07-30T20:39:17.691Z,22.64
2016-07-30T20:40:17.682Z,22.69
2016-07-30T20:41:17.658Z,22.61
2016-07-30T20:42:16.936Z,22.61
2016-07-30T20:43:17.628Z,22.59
2016-07-30T20:44:17.614Z,22.56
2016-07-30T20:45:16.883Z,22.61
2016-07-30T20:46:17.589Z,22.57
2016-07-30T20:47:17.575Z,22.59
2016-07-30T20:48:17.556Z,22.59
2016-07-30T20:49:17.539Z,22.59
2016-07-30T20:50:17.541Z,22.56
2016-07-30T20:51:17.510Z,22.63
2016-07-30T20:52:17.499Z,22.63
2016-07-30T20:53:17.480Z,22.7
2016-07-30T20:54:17.465Z,22.67
2016-07-30T20:55:16.746Z,22.78
2016-07-30T20:56:17.440Z,22.79
2016-07-30T20:57:17.436Z,22.82
2016-07-30T20:58:17.422Z,22.85
2016-07-30T20:59:17.393Z,22.84
2016-07-30T21:00:17.376Z,22.85
2016-07-30T21:01:16.647Z,22.84
2016-07-30T21:02:17.349Z,22.7
2016-07-30T21:03:17.346Z,22.75
2016-07-30T21:04:17.313Z,22.7
2016-07-30T21:05:16.592Z,22.75
2016-07-30T21:06:17.278Z,22.75
2016-07-30T21:07:17.274Z,22.78
2016-07-30T21:08:17.259Z,22.72
2016-07-30T21:09:17.237Z,22.75
2016-07-30T21:10:17.224Z,22.76
2016-07-30T21:11:17.217Z,22.69
2016-07-30T21:12:16.485Z,22.78
2016-07-30T21:13:17.190Z,22.82
2016-07-30T21:14:17.172Z,22.81
2016-07-30T21:15:17.154Z,22.74
2016-07-30T21:16:17.139Z,22.67
2016-07-30T21:17:17.126Z,22.76
2016-07-30T21:18:16.397Z,22.75
2016-07-30T21:19:17.095Z,22.7
2016-07-30T21:20:16.372Z,22.76
2016-07-30T21:21:17.068Z,22.74
2016-07-30T21:22:17.044Z,22.7
2016-07-30T21:23:17.041Z,22.75
2016-07-30T21:24:17.011Z,22.75
2016-07-30T21:25:17.008Z,22.7
2016-07-30T21:26:16.983Z,22.76
2016-07-30T21:28:16.960Z,22.69
2016-07-30T21:29:16.941Z,22.76
2016-07-30T21:30:16.935Z,22.76
2016-07-30T21:31:16.915Z,22.69
2016-07-30T21:32:16.909Z,22.74
2016-07-30T21:33:16.886Z,22.78
2016-07-30T21:34:16.867Z,22.85
2016-07-30T21:35:16.857Z,22.78
2016-07-30T21:36:16.839Z,22.76
2016-07-30T21:37:16.821Z,22.88
2016-07-30T21:38:16.806Z,22.82
2016-07-30T21:39:16.792Z,22.81
2016-07-30T21:40:16.779Z,22.82
2016-07-30T21:41:16.768Z,22.84
2016-07-30T21:42:16.751Z,22.79
2016-07-30T21:43:16.738Z,22.78
2016-07-30T21:44:16.010Z,22.88
2016-07-30T21:45:15.998Z,22.81
2016-07-30T21:46:16.693Z,22.89
2016-07-30T21:47:16.671Z,22.88
2016-07-30T21:48:16.675Z,22.85
2016-07-30T21:49:16.650Z,22.99
2016-07-30T21:50:16.632Z,22.85
2016-07-30T21:51:16.621Z,22.84
2016-07-30T21:52:16.606Z,22.81
2016-07-30T21:53:16.588Z,22.84
2016-07-30T21:54:15.875Z,22.86
2016-07-30T21:55:16.561Z,22.85
2016-07-30T21:56:16.556Z,22.86
2016-07-30T21:58:16.513Z,22.84
2016-07-30T21:59:16.506Z,22.84
2016-07-30T22:00:15.787Z,22.79
2016-07-30T22:01:16.467Z,22.82
2016-07-30T22:02:15.745Z,22.84
2016-07-30T22:03:16.448Z,22.85
2016-07-30T22:04:15.715Z,22.84
2016-07-30T22:05:16.405Z,22.86
2016-07-30T22:06:16.401Z,22.82
2016-07-30T22:07:16.393Z,22.81
2016-07-30T22:08:16.376Z,22.79
2016-07-30T22:09:15.641Z,22.86
2016-07-30T22:10:16.336Z,22.79
2016-07-30T22:11:16.316Z,22.75
2016-07-30T22:12:16.317Z,22.7
2016-07-30T22:13:16.290Z,22.72
2016-07-30T22:14:16.281Z,22.7
2016-07-30T22:15:16.264Z,22.75
2016-07-30T22:16:16.244Z,22.74
2016-07-30T22:17:16.233Z,22.72
2016-07-30T22:18:16.224Z,22.75
2016-07-30T22:19:15.509Z,22.69
2016-07-30T22:20:16.210Z,22.69
2016-07-30T22:21:16.186Z,22.69
2016-07-30T22:22:15.459Z,22.67
2016-07-30T22:23:15.437Z,22.76
2016-07-30T22:24:16.139Z,22.67
2016-07-30T22:25:16.114Z,22.66
2016-07-30T22:26:16.096Z,22.76
2016-07-30T22:27:16.081Z,22.67
2016-07-30T22:28:16.069Z,22.76
2016-07-30T22:29:16.044Z,22.75
2016-07-30T22:30:16.041Z,22.72
2016-07-30T22:31:16.020Z,22.67
2016-07-30T22:32:16.005Z,22.72
2016-07-30T22:33:16.004Z,22.69
2016-07-30T22:34:15.987Z,22.67
2016-07-30T22:35:15.964Z,22.64
2016-07-30T22:36:15.948Z,22.72
2016-07-30T22:37:15.225Z,22.64
2016-07-30T22:38:15.206Z,22.69
2016-07-30T22:39:15.908Z,22.7
2016-07-30T22:40:15.180Z,22.7
2016-07-30T22:41:15.874Z,22.74
2016-07-30T22:42:15.148Z,22.69
2016-07-30T22:43:15.844Z,22.72
2016-07-30T22:44:15.835Z,22.7
2016-07-30T22:45:15.825Z,22.67
2016-07-30T22:46:15.810Z,22.72
2016-07-30T22:47:15.075Z,22.69
2016-07-30T22:48:15.766Z,22.67
2016-07-30T22:49:15.751Z,22.74
2016-07-30T22:50:15.029Z,22.69
2016-07-30T22:51:15.728Z,22.66
2016-07-30T22:52:15.714Z,22.69
2016-07-30T22:53:15.703Z,22.69
2016-07-30T22:54:15.678Z,22.69
2016-07-30T22:55:15.675Z,22.66
2016-07-30T22:56:15.651Z,22.6
2016-07-30T22:57:15.632Z,22.64
2016-07-30T22:58:15.621Z,22.61
2016-07-30T22:59:15.606Z,22.63
2016-07-30T23:00:15.586Z,22.63
2016-07-30T23:01:15.574Z,22.61
2016-07-30T23:02:15.562Z,22.64
2016-07-30T23:03:15.561Z,22.61
2016-07-30T23:04:15.531Z,22.66
2016-07-30T23:05:15.512Z,22.63
2016-07-30T23:06:15.488Z,22.57
2016-07-30T23:07:15.479Z,22.64
2016-07-30T23:08:15.480Z,22.64
2016-07-30T23:09:15.452Z,22.6
2016-07-30T23:10:15.443Z,22.63
2016-07-30T23:11:14.717Z,22.57
2016-07-30T23:12:15.416Z,22.61
2016-07-30T23:13:15.398Z,22.6
2016-07-30T23:14:15.387Z,22.57
2016-07-30T23:15:15.373Z,22.61
2016-07-30T23:16:14.649Z,22.57
2016-07-30T23:17:15.332Z,22.57
2016-07-30T23:18:15.326Z,22.64
2016-07-30T23:19:15.308Z,22.64
2016-07-30T23:20:15.298Z,22.59
2016-07-30T23:21:15.276Z,22.54
2016-07-30T23:22:15.271Z,22.63
2016-07-30T23:23:15.241Z,22.61
2016-07-30T23:24:15.238Z,22.56
2016-07-30T23:25:15.218Z,22.61
2016-07-30T23:26:15.211Z,22.57
2016-07-30T23:27:15.185Z,22.6
2016-07-30T23:28:15.171Z,22.63
2016-07-30T23:29:14.450Z,22.6
2016-07-30T23:30:15.147Z,22.56
2016-07-30T23:31:15.120Z,22.52
2016-07-30T23:32:15.125Z,22.63
2016-07-30T23:33:15.094Z,22.64
2016-07-30T23:34:15.081Z,22.59
2016-07-30T23:35:15.070Z,22.57
2016-07-30T23:36:15.048Z,22.6
2016-07-30T23:37:15.037Z,22.64
2016-07-30T23:38:15.016Z,22.63
2016-07-30T23:39:15.007Z,22.52
2016-07-30T23:40:14.991Z,22.51
2016-07-30T23:41:14.979Z,22.54
2016-07-30T23:42:14.963Z,22.46
2016-07-30T23:43:14.237Z,22.52
2016-07-30T23:44:14.935Z,22.49
2016-07-30T23:45:14.218Z,22.51
2016-07-30T23:46:14.193Z,22.45
2016-07-30T23:47:14.892Z,22.6
2016-07-30T23:48:14.876Z,22.51
2016-07-30T23:49:14.855Z,22.57
2016-07-30T23:50:14.842Z,22.61
2016-07-30T23:51:14.823Z,22.48
2016-07-30T23:52:14.813Z,22.59
2016-07-30T23:53:14.796Z,22.46
2016-07-30T23:54:14.780Z,22.51
2016-07-30T23:55:14.765Z,22.56
2016-07-30T23:56:14.755Z,22.57
2016-07-30T23:57:14.749Z,22.56
2016-07-30T23:58:14.724Z,22.56
2016-07-30T23:59:14.709Z,22.51
